Time;durP1;ratioP1;P1;durP2;ratioP2;P2;SDS_P1;SDS_P2;PMS_P1;PMS_P2;Temp;Humidity;BMP_temperature;BMP_pressure;BME280_temperature;BME280_humidity;BME280_pressure;Samples;Min_cycle;Max_cycle;Signal;HPM_P1;HPM_P2
2020/12/21 00:01:51;;;;;;;15.02;3.50;;;6.30;94.00;;;;;;4988515;28;20044;-88
2020/12/21 00:04:17;;;;;;;12.68;3.70;;;6.20;94.10;;;;;;4990273;28;20033;-88
2020/12/21 00:06:43;;;;;;;14.23;3.67;;;6.20;94.10;;;;;;4992815;28;20031;-88
2020/12/21 00:09:09;;;;;;;12.57;3.97;;;6.10;94.10;;;;;;4978739;28;20106;-88
2020/12/21 00:11:39;;;;;;;16.20;4.03;;;6.10;94.20;;;;;;4990050;28;20397;-88
2020/12/21 00:14:06;;;;;;;13.98;4.10;;;6.10;94.30;;;;;;4988813;28;20027;-88
2020/12/21 00:16:36;;;;;;;18.35;4.68;;;6.00;94.20;;;;;;4983568;28;20057;-88
2020/12/21 00:19:02;;;;;;;12.88;4.65;;;6.10;94.60;;;;;;4989917;28;20019;-87
2020/12/21 00:21:28;;;;;;;12.57;3.90;;;6.00;94.30;;;;;;4985679;28;20030;-88
2020/12/21 00:23:53;;;;;;;16.80;4.20;;;5.90;94.30;;;;;;4981638;28;20034;-88
2020/12/21 00:26:19;;;;;;;11.57;4.03;;;5.90;94.40;;;;;;4991691;28;20096;-88
2020/12/21 00:28:44;;;;;;;14.95;4.07;;;5.80;94.40;;;;;;4988730;28;20549;-87
2020/12/21 00:31:10;;;;;;;11.45;3.72;;;5.70;94.50;;;;;;4987241;28;20046;-88
2020/12/21 00:33:35;;;;;;;11.23;4.35;;;5.70;94.50;;;;;;4975217;28;20030;-88
2020/12/21 00:36:01;;;;;;;12.25;4.05;;;5.70;94.50;;;;;;5001700;28;20037;-88
2020/12/21 00:38:26;;;;;;;17.15;5.10;;;5.70;94.60;;;;;;4977820;28;20037;-88
2020/12/21 00:40:52;;;;;;;19.52;3.95;;;5.60;94.70;;;;;;4993455;28;20034;-87
2020/12/21 00:43:17;;;;;;;16.92;4.05;;;5.60;94.70;;;;;;4977205;28;20058;-86
2020/12/21 00:45:43;;;;;;;16.67;4.07;;;5.60;94.70;;;;;;4991176;28;20089;-87
2020/12/21 00:48:08;;;;;;;15.98;3.67;;;5.50;94.70;;;;;;4988006;28;20034;-87
2020/12/21 00:50:34;;;;;;;13.88;4.07;;;5.50;94.70;;;;;;4976363;28;20137;-87
2020/12/21 00:52:59;;;;;;;15.15;3.70;;;5.50;94.70;;;;;;4975552;28;20069;-88
2020/12/21 00:55:25;;;;;;;12.55;3.70;;;5.50;94.80;;;;;;4976204;28;20450;-87
2020/12/21 00:57:51;;;;;;;11.68;4.18;;;5.50;94.80;;;;;;4984703;28;20077;-87
2020/12/21 01:00:16;;;;;;;19.98;3.97;;;5.50;94.90;;;;;;4992256;28;20023;-87
2020/12/21 01:02:42;;;;;;;14.40;4.38;;;5.50;94.90;;;;;;4999796;28;20031;-86
2020/12/21 01:05:07;;;;;;;18.38;4.78;;;5.40;94.90;;;;;;4975937;28;20041;-86
2020/12/21 01:07:33;;;;;;;19.92;4.32;;;5.40;94.90;;;;;;4978491;28;20135;-87
2020/12/21 01:09:58;;;;;;;16.05;5.03;;;5.40;94.90;;;;;;4983394;28;20402;-87
2020/12/21 01:12:27;;;;;;;11.45;3.80;;;5.30;94.90;;;;;;4989347;28;20093;-87
2020/12/21 01:14:52;;;;;;;12.13;3.08;;;5.30;95.20;;;;;;4986509;28;20483;-86
2020/12/21 01:17:18;;;;;;;14.68;4.15;;;5.30;95.00;;;;;;4987957;28;20061;-87
2020/12/21 01:19:43;;;;;;;14.57;4.32;;;5.20;95.00;;;;;;4976629;28;20061;-87
2020/12/21 01:22:09;;;;;;;14.38;4.35;;;5.20;95.10;;;;;;4987310;28;20541;-86
2020/12/21 01:24:34;;;;;;;13.40;3.35;;;5.20;95.10;;;;;;4976932;28;20030;-87
2020/12/21 01:27:00;;;;;;;20.90;5.28;;;5.20;95.20;;;;;;4979319;28;20452;-87
2020/12/21 01:29:25;;;;;;;11.60;3.40;;;5.20;95.20;;;;;;4987321;28;20105;-86
2020/12/21 01:31:51;;;;;;;18.17;4.45;;;5.20;95.30;;;;;;4994621;28;20129;-86
2020/12/21 01:34:17;;;;;;;16.77;4.57;;;5.20;95.30;;;;;;4987040;28;20468;-86
2020/12/21 01:36:43;;;;;;;21.00;4.35;;;5.20;95.30;;;;;;4984958;28;20026;-86
2020/12/21 01:39:09;;;;;;;18.13;4.78;;;5.20;95.40;;;;;;4995247;28;20045;-86
2020/12/21 01:41:34;;;;;;;16.15;4.43;;;5.20;95.40;;;;;;4993969;28;20018;-86
2020/12/21 01:44:00;;;;;;;17.17;3.97;;;5.20;95.40;;;;;;4982480;28;20077;-86
2020/12/21 01:46:26;;;;;;;14.63;4.28;;;5.20;95.50;;;;;;5010032;28;20054;-87
2020/12/21 01:48:53;;;;;;;17.38;4.20;;;5.30;95.50;;;;;;4994651;28;20506;-87
2020/12/21 01:51:24;;;;;;;15.30;4.32;;;5.30;95.50;;;;;;4995919;28;20027;-86
2020/12/21 01:53:51;;;;;;;11.93;3.25;;;5.30;95.50;;;;;;4981152;28;20084;-87
2020/12/21 01:56:17;;;;;;;12.30;4.20;;;5.30;95.50;;;;;;4994562;28;20027;-86
2020/12/21 01:58:44;;;;;;;18.50;3.88;;;5.30;95.60;;;;;;4993079;28;20390;-86
2020/12/21 02:01:12;;;;;;;13.68;3.38;;;5.30;95.60;;;;;;4994137;28;20041;-87
2020/12/21 02:03:39;;;;;;;18.25;4.25;;;5.30;95.60;;;;;;4992259;28;20037;-86
2020/12/21 02:06:04;;;;;;;16.88;4.13;;;5.40;95.60;;;;;;4994147;28;20042;-87
2020/12/21 02:08:30;;;;;;;13.15;3.65;;;5.40;95.70;;;;;;4982428;28;20035;-86
2020/12/21 02:10:56;;;;;;;15.25;3.25;;;5.40;95.60;;;;;;4995477;28;20486;-87
2020/12/21 02:13:21;;;;;;;13.38;3.70;;;5.40;95.60;;;;;;4991074;28;20382;-86
2020/12/21 02:15:47;;;;;;;16.58;3.42;;;5.40;95.60;;;;;;4994578;28;20026;-85
2020/12/21 02:18:12;;;;;;;16.35;3.63;;;5.40;95.60;;;;;;4975686;28;20106;-86
2020/12/21 02:20:38;;;;;;;13.85;3.75;;;5.40;95.60;;;;;;4975384;28;20027;-87
2020/12/21 02:23:04;;;;;;;11.95;2.75;;;5.30;95.50;;;;;;4988255;28;20121;-87
2020/12/21 02:25:29;;;;;;;15.63;3.33;;;5.30;95.60;;;;;;4988101;28;20066;-87
2020/12/21 02:27:55;;;;;;;18.05;3.70;;;5.30;95.60;;;;;;4984698;28;20034;-87
2020/12/21 02:30:20;;;;;;;13.07;3.67;;;5.30;95.60;;;;;;4991490;28;20094;-87
2020/12/21 02:32:46;;;;;;;10.98;3.35;;;5.30;95.60;;;;;;4994861;28;20022;-86
2020/12/21 02:35:12;;;;;;;15.30;3.13;;;5.30;95.60;;;;;;4991353;28;20038;-87
2020/12/21 02:37:38;;;;;;;15.63;3.33;;;5.40;95.70;;;;;;4979997;28;20126;-87
2020/12/21 02:40:05;;;;;;;16.02;3.40;;;5.30;95.60;;;;;;4994727;28;20026;-87
2020/12/21 02:42:31;;;;;;;13.68;3.45;;;5.30;95.70;;;;;;4979484;28;20030;-86
2020/12/21 02:44:56;;;;;;;21.30;5.00;;;5.20;95.70;;;;;;4984332;28;20050;-86
2020/12/21 02:47:22;;;;;;;11.77;3.72;;;5.30;95.70;;;;;;4991966;28;20035;-87
2020/12/21 02:49:48;;;;;;;19.65;3.92;;;5.20;95.70;;;;;;4985101;28;20030;-86
2020/12/21 02:52:14;;;;;;;17.35;4.15;;;5.20;95.70;;;;;;4992398;28;20038;-87
2020/12/21 02:54:40;;;;;;;18.67;3.65;;;5.20;95.70;;;;;;4984711;28;20109;-86
2020/12/21 02:57:06;;;;;;;14.38;3.55;;;5.20;95.70;;;;;;4977480;28;20069;-87
2020/12/21 02:59:31;;;;;;;12.40;3.50;;;5.20;95.70;;;;;;4994759;28;20054;-87
2020/12/21 03:01:57;;;;;;;17.67;3.72;;;5.20;95.70;;;;;;4980108;28;20023;-87
2020/12/21 03:04:22;;;;;;;16.20;4.00;;;5.20;95.80;;;;;;4994844;28;20104;-87
2020/12/21 03:06:48;;;;;;;18.08;3.58;;;5.20;95.80;;;;;;4992209;28;20041;-87
2020/12/21 03:09:13;;;;;;;13.80;3.13;;;5.20;95.80;;;;;;4979613;28;20570;-86
2020/12/21 03:11:43;;;;;;;12.95;3.65;;;5.10;95.90;;;;;;4975378;28;20038;-87
2020/12/21 03:14:09;;;;;;;8.50;2.55;;;5.10;95.80;;;;;;4978754;28;20031;-86
2020/12/21 03:16:34;;;;;;;12.05;3.70;;;5.10;95.80;;;;;;4983844;28;20121;-87
2020/12/21 03:19:00;;;;;;;16.58;4.72;;;5.10;95.80;;;;;;4994686;28;20023;-86
2020/12/21 03:21:25;;;;;;;13.02;3.10;;;5.10;95.90;;;;;;4986408;28;20034;-87
2020/12/21 03:23:50;;;;;;;13.60;3.55;;;5.10;95.90;;;;;;4983993;28;20085;-87
2020/12/21 03:26:16;;;;;;;12.15;3.33;;;5.10;95.90;;;;;;4992201;28;20050;-86
2020/12/21 03:28:41;;;;;;;14.80;3.45;;;5.10;95.90;;;;;;4991708;28;20380;-87
2020/12/21 03:31:07;;;;;;;16.10;4.00;;;5.10;95.90;;;;;;4974677;28;20114;-87
2020/12/21 03:33:32;;;;;;;12.63;2.90;;;5.10;96.00;;;;;;4985249;28;20023;-86
2020/12/21 03:35:58;;;;;;;13.77;3.00;;;5.10;96.00;;;;;;4983302;28;20033;-86
2020/12/21 03:38:24;;;;;;;11.73;2.92;;;5.10;96.00;;;;;;4984076;28;20023;-87
2020/12/21 03:40:49;;;;;;;18.52;3.33;;;5.10;96.00;;;;;;4986033;28;20125;-87
2020/12/21 03:43:18;;;;;;;12.45;3.47;;;5.10;96.00;;;;;;4985478;28;20101;-87
2020/12/21 03:45:45;;;;;;;15.60;3.22;;;5.10;96.10;;;;;;4982409;28;20042;-87
2020/12/21 03:48:11;;;;;;;13.82;3.03;;;5.10;96.10;;;;;;4989136;28;20026;-87
2020/12/21 03:50:36;;;;;;;14.82;3.15;;;5.10;96.00;;;;;;5000047;28;20502;-87
2020/12/21 03:53:02;;;;;;;15.23;3.70;;;5.10;96.00;;;;;;4991282;28;20070;-87
2020/12/21 03:55:27;;;;;;;10.38;2.88;;;5.10;96.10;;;;;;4974763;28;20030;-87
2020/12/21 03:57:53;;;;;;;15.50;2.83;;;5.10;96.00;;;;;;4980785;28;20026;-87
2020/12/21 04:00:19;;;;;;;18.30;4.05;;;5.10;96.00;;;;;;4990261;28;20271;-86
2020/12/21 04:02:44;;;;;;;14.40;3.08;;;5.10;96.00;;;;;;4986309;28;20018;-87
2020/12/21 04:05:10;;;;;;;11.15;2.78;;;5.00;96.00;;;;;;4993435;28;20034;-86
2020/12/21 04:07:38;;;;;;;10.55;2.70;;;5.00;96.00;;;;;;4992809;28;20449;-87
2020/12/21 04:10:05;;;;;;;12.13;2.75;;;5.00;96.10;;;;;;4992650;28;20121;-86
2020/12/21 04:12:32;;;;;;;11.75;2.83;;;5.00;96.10;;;;;;4993671;28;20491;-87
2020/12/21 04:14:57;;;;;;;11.57;2.95;;;5.00;96.10;;;;;;4992892;28;20045;-87
2020/12/21 04:17:23;;;;;;;12.65;2.67;;;5.00;96.20;;;;;;4990135;28;20483;-87
2020/12/21 04:19:48;;;;;;;9.68;3.08;;;5.00;96.10;;;;;;4983132;28;20034;-87
2020/12/21 04:22:13;;;;;;;14.40;2.63;;;5.00;96.10;;;;;;4984245;28;20121;-87
2020/12/21 04:24:39;;;;;;;14.98;3.28;;;4.90;96.10;;;;;;4985045;28;20026;-87
2020/12/21 04:27:04;;;;;;;14.88;3.22;;;4.90;96.10;;;;;;4990825;28;20043;-88
2020/12/21 04:29:30;;;;;;;13.50;2.83;;;4.90;96.20;;;;;;4988692;28;20117;-88
2020/12/21 04:31:56;;;;;;;16.30;3.42;;;5.00;96.20;;;;;;4993369;28;20085;-88
2020/12/21 04:34:24;;;;;;;17.48;3.75;;;4.90;96.30;;;;;;4989682;28;20497;-88
2020/12/21 04:36:51;;;;;;;8.13;2.08;;;5.00;96.30;;;;;;4993406;28;20034;-88
2020/12/21 04:39:16;;;;;;;9.48;2.13;;;5.00;96.30;;;;;;4975595;28;20050;-88
2020/12/21 04:41:59;;;;;;;12.73;2.53;;;5.10;96.40;;;;;;4987119;28;20471;-88
2020/12/21 04:44:25;;;;;;;;;;;5.10;96.40;;;;;;4982497;28;20094;-88
2020/12/21 04:46:55;;;;;;;14.93;2.45;;;5.10;96.40;;;;;;4988226;28;20420;-88
2020/12/21 04:49:22;;;;;;;13.13;2.60;;;5.10;96.40;;;;;;4990785;28;20507;-88
2020/12/21 04:51:49;;;;;;;12.65;1.88;;;5.20;96.40;;;;;;4977669;28;20047;-88
2020/12/21 04:54:15;;;;;;;10.10;2.05;;;5.20;96.40;;;;;;4982976;28;20023;-88
2020/12/21 04:56:42;;;;;;;7.88;2.22;;;5.20;96.40;;;;;;4980046;28;20030;-88
2020/12/21 04:59:11;;;;;;;15.70;1.83;;;5.30;96.40;;;;;;4992330;28;20023;-89
2020/12/21 05:01:37;;;;;;;15.13;2.00;;;5.30;96.40;;;;;;4985574;28;20027;-87
2020/12/21 05:04:03;;;;;;;10.82;1.95;;;5.30;96.40;;;;;;4993423;28;20097;-88
2020/12/21 05:06:29;;;;;;;14.00;2.75;;;5.40;96.50;;;;;;4992677;28;20043;-87
2020/12/21 05:09:07;;;;;;;10.25;2.17;;;5.40;96.40;;;;;;4993273;28;20090;-87
2020/12/21 05:11:34;;;;;;;9.52;1.50;;;5.50;96.40;;;;;;4990228;28;20058;-88
2020/12/21 05:14:11;;;;;;;10.82;1.70;;;5.50;96.40;;;;;;4984892;28;20030;-85
2020/12/21 05:16:37;;;;;;;10.18;1.70;;;5.50;96.40;;;;;;4996927;28;20034;-87
2020/12/21 05:19:04;;;;;;;16.13;2.28;;;5.60;96.40;;;;;;4994889;28;20029;-88
2020/12/21 05:21:30;;;;;;;9.23;1.90;;;5.60;96.30;;;;;;4982809;28;20042;-87
2020/12/21 05:24:01;;;;;;;13.00;1.92;;;5.60;96.30;;;;;;4990314;28;20023;-88
2020/12/21 05:26:33;;;;;;;9.57;1.60;;;5.60;96.30;;;;;;4994459;28;20048;-87
2020/12/21 05:29:02;;;;;;;10.65;1.73;;;5.60;96.30;;;;;;4996322;28;20030;-88
2020/12/21 05:31:28;;;;;;;12.00;1.88;;;5.70;96.30;;;;;;4980242;28;20039;-88
2020/12/21 05:33:54;;;;;;;12.00;1.70;;;5.80;96.30;;;;;;4991359;28;20387;-87
2020/12/21 05:36:22;;;;;;;13.35;2.00;;;5.70;96.30;;;;;;4992472;28;20039;-87
2020/12/21 05:38:58;;;;;;;14.60;2.17;;;5.80;96.30;;;;;;4993399;28;20065;-87
2020/12/21 05:41:24;;;;;;;12.32;2.40;;;5.80;96.30;;;;;;4981179;28;20087;-87
2020/12/21 05:43:52;;;;;;;15.45;2.33;;;5.80;96.20;;;;;;5005698;28;20046;-88
2020/12/21 05:46:22;;;;;;;17.60;2.42;;;5.80;96.20;;;;;;4988183;28;20387;-88
2020/12/21 05:48:56;;;;;;;13.73;2.35;;;5.80;96.10;;;;;;4995305;28;20164;-87
2020/12/21 05:51:34;;;;;;;13.02;2.22;;;5.90;96.10;;;;;;4991383;28;20134;-88
2020/12/21 05:54:02;;;;;;;12.73;1.85;;;5.80;96.30;;;;;;4983315;28;20161;-87
2020/12/21 05:56:30;;;;;;;10.00;2.70;;;5.80;96.00;;;;;;4991597;28;20094;-87
2020/12/21 05:58:56;;;;;;;10.40;1.77;;;5.80;96.00;;;;;;4993642;28;20034;-87
2020/12/21 06:01:22;;;;;;;8.23;2.13;;;5.90;96.00;;;;;;4989529;28;20031;-87
2020/12/21 06:03:52;;;;;;;12.90;2.20;;;5.80;96.00;;;;;;4988280;28;20642;-87
2020/12/21 06:06:25;;;;;;;12.68;2.70;;;5.80;96.00;;;;;;4992786;28;20042;-88
2020/12/21 06:08:56;;;;;;;11.20;2.60;;;5.80;96.00;;;;;;5011535;28;20070;-88
2020/12/21 06:11:26;;;;;;;15.73;2.22;;;5.70;96.00;;;;;;4991419;28;20033;-89
2020/12/21 06:14:07;;;;;;;12.55;2.65;;;5.70;95.90;;;;;;4985678;28;20027;-89
2020/12/21 06:16:35;;;;;;;17.90;3.63;;;5.70;95.90;;;;;;4979511;28;20035;-88
2020/12/21 06:19:22;;;;;;;14.15;2.67;;;5.70;96.00;;;;;;4977908;28;20539;-88
2020/12/21 06:21:51;;;;;;;11.07;2.53;;;5.60;96.00;;;;;;4990594;28;20034;-88
2020/12/21 06:24:21;;;;;;;10.65;2.50;;;5.60;96.00;;;;;;4994534;28;20022;-88
2020/12/21 06:26:48;;;;;;;15.30;2.70;;;5.60;96.00;;;;;;4992125;28;20113;-88
2020/12/21 06:29:16;;;;;;;19.25;3.13;;;5.60;96.00;;;;;;4976296;28;20038;-88
2020/12/21 06:31:46;;;;;;;19.08;2.85;;;5.50;96.00;;;;;;4987458;28;20050;-89
2020/12/21 06:34:15;;;;;;;14.88;3.03;;;5.60;96.00;;;;;;4989545;28;20102;-87
2020/12/21 06:36:41;;;;;;;9.70;2.80;;;5.50;96.00;;;;;;4980935;28;20038;-89
2020/12/21 06:39:08;;;;;;;13.95;2.90;;;5.60;96.10;;;;;;4986495;28;20063;-89
2020/12/21 06:41:34;;;;;;;9.15;1.73;;;5.50;96.00;;;;;;4982620;28;20027;-89
2020/12/21 06:44:07;;;;;;;11.55;2.75;;;5.50;96.00;;;;;;4991710;28;20047;-87
2020/12/21 06:46:33;;;;;;;;;;;5.50;96.10;;;;;;4990054;28;20065;-88
2020/12/21 06:49:08;;;;;;;11.73;2.65;;;5.50;96.00;;;;;;4993236;28;19918;-87
2020/12/21 06:51:35;;;;;;;14.05;3.35;;;5.40;96.00;;;;;;4989069;28;20050;-87
2020/12/21 06:54:04;;;;;;;16.50;3.70;;;5.40;96.00;;;;;;4988105;28;20022;-88
2020/12/21 06:56:30;;;;;;;21.92;3.33;;;5.40;96.00;;;;;;4988266;28;20033;-88
2020/12/21 06:58:57;;;;;;;11.73;2.95;;;5.40;96.00;;;;;;4984395;28;20031;-89
2020/12/21 07:01:25;;;;;;;14.40;3.40;;;5.40;96.00;;;;;;4984438;28;20031;-88
2020/12/21 07:03:51;;;;;;;10.43;2.83;;;5.40;96.00;;;;;;4986944;28;20113;-88
2020/12/21 07:06:17;;;;;;;18.80;3.42;;;5.40;96.00;;;;;;4990876;28;20049;-88
2020/12/21 07:08:44;;;;;;;17.10;3.13;;;5.40;96.10;;;;;;4994050;28;20387;-88
2020/12/21 07:11:20;;;;;;;15.25;3.10;;;5.40;96.10;;;;;;4992197;28;20035;-88
2020/12/21 07:13:48;;;;;;;11.70;3.45;;;5.50;96.10;;;;;;4978014;28;20093;-88
2020/12/21 07:16:18;;;;;;;17.85;2.88;;;5.50;96.10;;;;;;4985922;28;20032;-88
2020/12/21 07:18:45;;;;;;;17.38;4.25;;;5.50;96.10;;;;;;4977090;28;20026;-88
2020/12/21 07:21:12;;;;;;;16.20;2.85;;;5.50;96.10;;;;;;4990076;28;20033;-87
2020/12/21 07:23:38;;;;;;;12.65;3.97;;;5.60;96.10;;;;;;4987049;28;20026;-89
2020/12/21 07:26:04;;;;;;;11.02;2.50;;;5.60;96.10;;;;;;4997493;28;20115;-88
2020/12/21 07:28:30;;;;;;;15.52;3.22;;;5.60;96.10;;;;;;4978651;28;20054;-87
2020/12/21 07:31:10;;;;;;;15.13;3.38;;;5.70;96.10;;;;;;4979930;28;20388;-87
2020/12/21 07:33:57;;;;;;;13.20;2.97;;;5.70;96.10;;;;;;4976369;28;20125;-88
2020/12/21 07:36:27;;;;;;;13.70;3.08;;;5.80;96.10;;;;;;4980808;28;20114;-88
2020/12/21 07:39:03;;;;;;;10.95;2.90;;;5.80;96.10;;;;;;4995653;28;20399;-89
2020/12/21 07:41:30;;;;;;;16.75;3.63;;;5.90;96.10;;;;;;4985081;28;20073;-88
2020/12/21 07:44:05;;;;;;;18.70;4.20;;;5.90;96.00;;;;;;4978106;28;20038;-89
2020/12/21 07:46:38;;;;;;;11.77;3.00;;;6.00;96.00;;;;;;4988334;28;20034;-89
2020/12/21 07:49:05;;;;;;;12.05;2.80;;;6.00;96.00;;;;;;4993513;28;20122;-88
2020/12/21 07:51:33;;;;;;;7.35;2.05;;;6.00;95.90;;;;;;4990331;28;20054;-88
2020/12/21 07:54:00;;;;;;;14.07;3.13;;;6.00;95.90;;;;;;4978429;28;20042;-88
2020/12/21 07:56:26;;;;;;;12.80;3.50;;;6.00;95.90;;;;;;4976431;28;20022;-88
2020/12/21 07:58:51;;;;;;;13.30;3.28;;;6.10;95.90;;;;;;4993954;28;20088;-88
2020/12/21 08:01:23;;;;;;;14.15;4.18;;;6.10;95.90;;;;;;4988908;28;20023;-88
2020/12/21 08:03:53;;;;;;;16.30;2.75;;;6.20;95.90;;;;;;4980108;28;20090;-87
2020/12/21 08:06:23;;;;;;;10.48;2.33;;;6.10;95.90;;;;;;4974322;28;20499;-87
2020/12/21 08:08:50;;;;;;;17.55;3.38;;;6.20;95.90;;;;;;4975229;28;20415;-87
2020/12/21 08:11:18;;;;;;;8.50;2.05;;;6.20;95.90;;;;;;4975622;28;20027;-87
2020/12/21 08:13:48;;;;;;;12.65;2.22;;;6.30;95.90;;;;;;4982418;28;20019;-86
2020/12/21 08:16:14;;;;;;;14.32;3.13;;;6.30;95.90;;;;;;4992993;28;20069;-87
2020/12/21 08:18:42;;;;;;;10.95;2.28;;;6.30;95.90;;;;;;4994571;28;20026;-88
2020/12/21 08:21:12;;;;;;;9.88;2.38;;;6.40;95.80;;;;;;4981986;28;20033;-87
2020/12/21 08:23:37;;;;;;;10.57;2.10;;;6.40;95.80;;;;;;4975698;28;20030;-87
2020/12/21 08:26:13;;;;;;;23.90;2.85;;;6.50;95.80;;;;;;4989474;28;20156;-86
2020/12/21 08:28:38;;;;;;;10.60;1.95;;;6.60;95.80;;;;;;4994726;28;20031;-87
2020/12/21 08:31:15;;;;;;;10.07;2.53;;;6.60;95.70;;;;;;4977667;28;20027;-87
2020/12/21 08:34:02;;;;;;;11.73;2.13;;;6.70;95.70;;;;;;4989432;28;20030;-89
2020/12/21 08:36:30;;;;;;;8.07;1.90;;;6.70;95.70;;;;;;4994458;28;20034;-90
2020/12/21 08:39:12;;;;;;;10.30;1.92;;;6.70;95.60;;;;;;4993342;28;20027;-87
2020/12/21 08:41:52;;;;;;;12.57;2.28;;;6.80;95.60;;;;;;4978488;28;20031;-88
2020/12/21 08:44:21;;;;;;;11.73;1.60;;;6.80;95.60;;;;;;4984360;28;20050;-88
2020/12/21 08:46:48;;;;;;;11.40;2.75;;;6.90;95.50;;;;;;4992060;28;20117;-89
2020/12/21 08:49:14;;;;;;;9.68;2.30;;;6.90;95.40;;;;;;4993228;28;20022;-87
2020/12/21 08:51:40;;;;;;;8.20;1.92;;;7.00;95.40;;;;;;4987056;28;20030;-89
2020/12/21 08:54:05;;;;;;;8.98;2.25;;;7.00;95.30;;;;;;4998977;28;20077;-87
2020/12/21 08:56:31;;;;;;;12.27;2.65;;;7.00;95.30;;;;;;4978219;28;20130;-88
2020/12/21 08:58:57;;;;;;;13.70;2.17;;;7.10;95.30;;;;;;4983373;28;20054;-89
2020/12/21 09:01:22;;;;;;;14.57;2.25;;;7.10;95.20;;;;;;4980920;28;20117;-89
2020/12/21 09:03:48;;;;;;;9.30;1.73;;;7.10;95.20;;;;;;4974102;28;20026;-89
2020/12/21 09:06:18;;;;;;;14.68;2.38;;;7.20;95.10;;;;;;4988853;28;20039;-88
2020/12/21 09:08:44;;;;;;;12.55;2.13;;;7.20;95.10;;;;;;4989437;28;20027;-89
2020/12/21 09:11:09;;;;;;;6.43;1.58;;;7.30;95.10;;;;;;4974324;28;20050;-88
2020/12/21 09:13:35;;;;;;;9.45;2.25;;;7.40;95.10;;;;;;5001515;28;20049;-87
2020/12/21 09:16:01;;;;;;;7.50;1.90;;;7.40;95.10;;;;;;4983187;28;20113;-89
2020/12/21 09:18:27;;;;;;;11.85;2.38;;;7.40;95.00;;;;;;4978578;28;20034;-89
2020/12/21 09:20:52;;;;;;;12.82;2.75;;;7.50;95.00;;;;;;4993064;28;20039;-89
2020/12/21 09:23:18;;;;;;;15.65;4.00;;;7.50;94.90;;;;;;4991291;28;20386;-89
2020/12/21 09:25:43;;;;;;;14.50;3.67;;;7.60;94.90;;;;;;4982899;28;20483;-89
2020/12/21 09:28:09;;;;;;;14.68;3.15;;;7.60;94.80;;;;;;4977253;28;20129;-89
2020/12/21 09:30:34;;;;;;;8.10;1.38;;;7.70;94.80;;;;;;4977023;28;20059;-89
2020/12/21 09:33:01;;;;;;;10.02;1.65;;;7.70;94.70;;;;;;4978309;28;20046;-90
2020/12/21 09:35:27;;;;;;;10.75;1.58;;;7.80;94.60;;;;;;4987963;28;20045;-89
2020/12/21 09:37:53;;;;;;;10.13;2.13;;;7.80;94.50;;;;;;4994198;28;20062;-90
2020/12/21 09:40:19;;;;;;;7.70;1.70;;;7.80;94.50;;;;;;4996240;28;20023;-89
2020/12/21 09:42:45;;;;;;;8.07;1.60;;;7.80;94.40;;;;;;4998942;28;20038;-89
2020/12/21 09:45:11;;;;;;;10.05;1.92;;;7.90;94.30;;;;;;4995676;28;20042;-88
2020/12/21 09:47:36;;;;;;;8.95;2.40;;;7.90;94.30;;;;;;4996186;28;20026;-89
2020/12/21 09:50:02;;;;;;;10.45;2.03;;;7.90;94.30;;;;;;4993929;28;20023;-89
2020/12/21 09:52:28;;;;;;;10.93;2.30;;;7.90;94.20;;;;;;4992229;28;20033;-89
2020/12/21 09:54:53;;;;;;;7.25;1.83;;;7.90;94.20;;;;;;4995311;28;20030;-88
2020/12/21 09:57:19;;;;;;;6.93;1.48;;;8.00;94.30;;;;;;4992432;28;20026;-88
2020/12/21 09:59:44;;;;;;;14.70;2.75;;;8.00;94.20;;;;;;4994345;28;20033;-88
2020/12/21 10:02:10;;;;;;;9.57;2.20;;;8.00;94.20;;;;;;4995949;28;20402;-88
2020/12/21 10:04:36;;;;;;;8.43;1.60;;;8.00;94.20;;;;;;4995558;28;20109;-88
2020/12/21 10:07:01;;;;;;;14.45;2.30;;;8.00;94.20;;;;;;4994736;28;20450;-89
2020/12/21 10:09:27;;;;;;;11.57;1.52;;;8.10;94.20;;;;;;4995774;28;20023;-89
2020/12/21 10:11:53;;;;;;;8.02;2.40;;;8.10;94.20;;;;;;4995940;28;20169;-88
2020/12/21 10:14:18;;;;;;;10.57;1.70;;;8.10;94.20;;;;;;4989123;28;20045;-87
2020/12/21 10:16:44;;;;;;;7.55;1.55;;;8.00;94.20;;;;;;4995541;28;20053;-88
2020/12/21 10:19:09;;;;;;;10.82;2.00;;;8.00;94.20;;;;;;4988719;28;20053;-88
2020/12/21 10:21:35;;;;;;;8.68;1.52;;;8.00;94.20;;;;;;4991242;28;20030;-87
2020/12/21 10:24:00;;;;;;;9.35;1.95;;;8.00;94.20;;;;;;4994908;28;20438;-87
2020/12/21 10:26:26;;;;;;;9.32;2.65;;;8.00;94.30;;;;;;4994865;28;20030;-88
2020/12/21 10:28:51;;;;;;;12.05;2.00;;;8.00;94.30;;;;;;4993832;28;20095;-87
2020/12/21 10:31:17;;;;;;;7.75;1.95;;;8.10;94.40;;;;;;4995265;28;20451;-89
2020/12/21 10:33:42;;;;;;;9.75;1.90;;;8.10;94.40;;;;;;4997884;28;20109;-88
2020/12/21 10:36:13;;;;;;;8.80;2.05;;;8.10;94.40;;;;;;4999617;28;20391;-88
2020/12/21 10:38:40;;;;;;;7.78;1.85;;;8.10;94.40;;;;;;4988196;28;20027;-88
2020/12/21 10:41:06;;;;;;;7.38;1.58;;;8.10;94.70;;;;;;4990983;28;20023;-88
2020/12/21 10:43:31;;;;;;;8.65;1.73;;;8.10;94.50;;;;;;4991878;28;20101;-88
2020/12/21 10:45:57;;;;;;;10.38;2.45;;;8.10;94.50;;;;;;4994732;28;20045;-88
2020/12/21 10:48:22;;;;;;;10.15;1.98;;;8.10;94.50;;;;;;4991907;28;20116;-87
2020/12/21 10:50:48;;;;;;;7.65;3.30;;;8.20;94.50;;;;;;4986017;28;20045;-88
2020/12/21 10:53:14;;;;;;;6.65;1.83;;;8.10;94.50;;;;;;4994818;28;20026;-88
2020/12/21 10:55:39;;;;;;;16.23;3.17;;;8.20;94.50;;;;;;4985676;28;20482;-88
2020/12/21 10:58:05;;;;;;;12.95;2.55;;;8.20;94.50;;;;;;4979577;28;20022;-88
2020/12/21 11:00:30;;;;;;;15.15;2.60;;;8.20;94.60;;;;;;4991248;28;20493;-89
2020/12/21 11:02:56;;;;;;;9.80;2.78;;;8.20;94.60;;;;;;4995428;28;20098;-87
2020/12/21 11:05:21;;;;;;;13.55;3.22;;;8.10;94.60;;;;;;4992717;28;20104;-87
2020/12/21 11:07:47;;;;;;;9.07;2.33;;;8.10;94.60;;;;;;4993808;28;20030;-89
2020/12/21 11:10:12;;;;;;;7.20;3.00;;;8.10;94.60;;;;;;4997311;28;20023;-88
2020/12/21 11:12:38;;;;;;;12.40;2.80;;;8.20;94.70;;;;;;4992355;28;20028;-87
2020/12/21 11:15:04;;;;;;;9.80;2.42;;;8.10;94.70;;;;;;4994391;28;20032;-88
2020/12/21 11:17:30;;;;;;;12.45;2.15;;;8.20;94.70;;;;;;4989522;28;20553;-88
2020/12/21 11:19:55;;;;;;;9.65;2.75;;;8.10;94.70;;;;;;4983120;28;20034;-88
2020/12/21 11:22:21;;;;;;;10.02;3.15;;;8.20;94.70;;;;;;4982269;28;20018;-88
2020/12/21 11:24:47;;;;;;;8.68;2.85;;;8.10;94.70;;;;;;4983730;28;20109;-88
2020/12/21 11:27:13;;;;;;;10.80;2.17;;;8.10;94.70;;;;;;4975315;28;20034;-88
2020/12/21 11:29:38;;;;;;;15.45;3.85;;;8.10;94.80;;;;;;4986485;28;20530;-88
2020/12/21 11:32:04;;;;;;;11.75;3.13;;;8.20;94.80;;;;;;4986450;28;20030;-88
2020/12/21 11:34:29;;;;;;;7.45;2.72;;;8.10;94.80;;;;;;4985632;28;20023;-88
2020/12/21 11:36:55;;;;;;;9.25;2.75;;;8.20;94.90;;;;;;4985004;28;20026;-87
2020/12/21 11:39:20;;;;;;;13.20;3.65;;;8.20;94.90;;;;;;4986476;28;20026;-88
2020/12/21 11:41:46;;;;;;;14.15;3.80;;;8.20;94.90;;;;;;4989053;28;20022;-87
2020/12/21 11:44:11;;;;;;;19.95;4.03;;;8.20;94.90;;;;;;4992548;28;20054;-87
2020/12/21 11:46:37;;;;;;;10.63;4.43;;;8.10;94.90;;;;;;4994153;28;20110;-88
2020/12/21 11:49:04;;;;;;;14.15;4.18;;;8.10;94.90;;;;;;4993351;28;20026;-87
2020/12/21 11:51:30;;;;;;;13.18;3.83;;;8.10;95.00;;;;;;4986953;28;20050;-87
2020/12/21 11:53:55;;;;;;;15.18;4.68;;;8.10;95.00;;;;;;4993036;28;20057;-88
2020/12/21 11:56:21;;;;;;;16.02;5.05;;;8.10;95.00;;;;;;4981168;28;20438;-88
2020/12/21 11:58:48;;;;;;;12.77;4.72;;;8.10;95.00;;;;;;4992537;28;20029;-87
2020/12/21 12:01:16;;;;;;;13.35;4.35;;;8.10;95.10;;;;;;4975602;28;20027;-88
2020/12/21 12:03:42;;;;;;;10.30;3.72;;;8.10;95.10;;;;;;4976654;28;20475;-88
2020/12/21 12:06:07;;;;;;;15.00;3.67;;;8.10;95.10;;;;;;4984882;28;20085;-87
2020/12/21 12:08:33;;;;;;;13.27;3.80;;;8.10;95.10;;;;;;4993482;28;20105;-88
2020/12/21 12:10:59;;;;;;;9.85;4.25;;;8.10;95.10;;;;;;4989872;28;20093;-87
2020/12/21 12:13:25;;;;;;;13.65;4.35;;;8.10;95.10;;;;;;4979996;28;20031;-88
2020/12/21 12:15:51;;;;;;;11.10;4.13;;;8.10;95.10;;;;;;4974073;28;20062;-88
2020/12/21 12:18:16;;;;;;;12.38;4.88;;;8.10;95.10;;;;;;4980136;28;20058;-87
2020/12/21 12:20:42;;;;;;;14.82;4.18;;;8.10;95.10;;;;;;4990132;28;20031;-89
2020/12/21 12:23:08;;;;;;;11.80;3.72;;;8.10;95.20;;;;;;4990742;28;20533;-88
2020/12/21 12:25:33;;;;;;;12.50;4.40;;;8.10;95.20;;;;;;4993093;28;20380;-87
2020/12/21 12:28:00;;;;;;;15.70;4.18;;;8.10;95.20;;;;;;4992181;28;20081;-87
2020/12/21 12:30:25;;;;;;;13.00;4.25;;;8.10;95.20;;;;;;4985093;28;20027;-87
2020/12/21 12:32:51;;;;;;;14.52;4.57;;;8.10;95.20;;;;;;4988472;28;20380;-87
2020/12/21 12:35:16;;;;;;;11.73;4.15;;;8.10;95.20;;;;;;4998914;28;20105;-87
2020/12/21 12:37:42;;;;;;;11.68;4.60;;;8.10;95.20;;;;;;4993524;28;20117;-88
2020/12/21 12:40:07;;;;;;;15.70;5.20;;;8.10;95.20;;;;;;4992720;28;20491;-87
2020/12/21 12:42:33;;;;;;;14.23;4.82;;;8.10;95.30;;;;;;4980959;28;20030;-87
2020/12/21 12:44:59;;;;;;;15.45;4.78;;;8.10;95.30;;;;;;4979039;28;20400;-88
2020/12/21 12:47:25;;;;;;;10.85;4.22;;;8.10;95.30;;;;;;4993168;28;20034;-87